Time;durP1;ratioP1;P1;durP2;ratioP2;P2;SDS_P1;SDS_P2;PMS_P1;PMS_P2;Temp;Humidity;BMP_temperature;BMP_pressure;BME280_temperature;BME280_humidity;BME280_pressure;Samples;Min_cycle;Max_cycle;Signal;HPM_P1;HPM_P2
2022/12/19 00:01:02;;;;;;;51.83;26.57;;;;;;;;;;5050761;28;20843;-64
2022/12/19 00:03:28;;;;;;;50.77;26.43;;;;;;;;;;5051894;28;20068;-64
2022/12/19 00:05:54;;;;;;;48.50;25.97;;;;;;;;;;5050309;28;20299;-64
2022/12/19 00:08:20;;;;;;;56.67;26.33;;;;;;;;;;5050286;28;20712;-64
2022/12/19 00:11:00;;;;;;;53.80;29.33;;;;;;;;;;5049663;28;20686;-64
2022/12/19 00:13:26;;;;;;;57.53;28.00;;;;;;;;;;5068271;28;20371;-64
2022/12/19 00:15:53;;;;;;;60.87;28.03;;;;;;;;;;5070179;28;20040;-64
2022/12/19 00:18:19;;;;;;;54.07;27.77;;;;;;;;;;5058906;28;20299;-64
2022/12/19 00:20:45;;;;;;;51.80;25.27;;;;;;;;;;5050040;28;20378;-64
2022/12/19 00:23:11;;;;;;;56.43;25.33;;;;;;;;;;5052030;28;20303;-64
2022/12/19 00:25:37;;;;;;;55.30;27.37;;;;;;;;;;5061859;28;20300;-64
2022/12/19 00:28:03;;;;;;;51.03;27.30;;;;;;;;;;5053323;28;20852;-64
2022/12/19 00:30:29;;;;;;;52.60;27.33;;;;;;;;;;5049885;28;20345;-64
2022/12/19 00:32:55;;;;;;;57.93;30.10;;;;;;;;;;5049901;28;20280;-64
2022/12/19 00:35:21;;;;;;;57.43;29.73;;;;;;;;;;5062410;28;20337;-64
2022/12/19 00:37:47;;;;;;;54.63;28.53;;;;;;;;;;5069973;28;20448;-64
2022/12/19 00:40:13;;;;;;;52.23;27.60;;;;;;;;;;5068310;28;20283;-64
2022/12/19 00:42:39;;;;;;;56.73;27.07;;;;;;;;;;5069794;28;20094;-64
2022/12/19 00:45:05;;;;;;;54.33;26.77;;;;;;;;;;5069473;28;20291;-64
2022/12/19 00:47:31;;;;;;;57.20;27.63;;;;;;;;;;5069419;28;20311;-64
2022/12/19 00:49:58;;;;;;;50.70;24.93;;;;;;;;;;5057996;28;20863;-64
2022/12/19 00:52:24;;;;;;;54.07;28.93;;;;;;;;;;5048864;28;20379;-64
2022/12/19 00:54:50;;;;;;;52.00;26.93;;;;;;;;;;5049745;28;20342;-64
2022/12/19 00:57:16;;;;;;;48.57;26.30;;;;;;;;;;5049266;28;20283;-65
2022/12/19 00:59:42;;;;;;;54.23;26.50;;;;;;;;;;5067466;28;20307;-64
2022/12/19 01:02:08;;;;;;;56.40;26.57;;;;;;;;;;5067794;28;20283;-64
2022/12/19 01:04:34;;;;;;;52.73;27.30;;;;;;;;;;5053860;28;20796;-65
2022/12/19 01:07:00;;;;;;;53.83;25.93;;;;;;;;;;5048987;28;20643;-65
2022/12/19 01:09:26;;;;;;;53.57;26.80;;;;;;;;;;5049400;28;20283;-65
2022/12/19 01:14:37;;;;;;;51.43;25.47;;;;;;;;;;5049379;28;20275;-65
2022/12/19 01:17:03;;;;;;;49.87;25.80;;;;;;;;;;5047981;28;20283;-65
2022/12/19 01:19:29;;;;;;;55.53;26.23;;;;;;;;;;5049741;28;20056;-65
2022/12/19 01:21:55;;;;;;;49.93;24.77;;;;;;;;;;5049257;28;20280;-65
2022/12/19 01:24:21;;;;;;;49.27;26.63;;;;;;;;;;5048838;28;20311;-65
2022/12/19 01:26:47;;;;;;;56.00;27.87;;;;;;;;;;5049453;28;20307;-65
2022/12/19 01:29:13;;;;;;;54.90;27.13;;;;;;;;;;5050250;28;20848;-65
2022/12/19 01:31:39;;;;;;;46.53;26.60;;;;;;;;;;5066395;28;20304;-65
2022/12/19 01:34:05;;;;;;;54.87;28.13;;;;;;;;;;5051602;28;20287;-65
2022/12/19 01:36:33;;;;;;;47.80;27.53;;;;;;;;;;5053067;28;20418;-65
2022/12/19 01:38:59;;;;;;;56.73;26.83;;;;;;;;;;5068633;28;20788;-65
2022/12/19 01:41:25;;;;;;;57.20;27.23;;;;;;;;;;5069410;28;20679;-65
2022/12/19 01:43:57;;;;;;;49.80;24.00;;;;;;;;;;5068992;28;20291;-65
2022/12/19 01:46:50;;;;;;;52.37;25.40;;;;;;;;;;5068945;28;20355;-65
2022/12/19 01:49:19;;;;;;;52.63;26.93;;;;;;;;;;5064151;28;20305;-65
2022/12/19 01:51:46;;;;;;;53.13;28.37;;;;;;;;;;5067708;28;20299;-65
2022/12/19 01:54:19;;;;;;;50.43;29.80;;;;;;;;;;5068480;28;20048;-65
2022/12/19 01:56:49;;;;;;;55.45;28.40;;;;;;;;;;5068991;28;20286;-66
2022/12/19 01:59:26;;;;;;;61.77;29.40;;;;;;;;;;5067906;28;20067;-66
2022/12/19 02:01:55;;;;;;;65.27;30.47;;;;;;;;;;5067544;28;20279;-66
2022/12/19 02:04:21;;;;;;;69.47;31.47;;;;;;;;;;5048828;28;20288;-66
2022/12/19 02:06:48;;;;;;;85.17;35.87;;;;;;;;;;5064512;28;20307;-66
2022/12/19 02:09:15;;;;;;;89.30;35.73;;;;;;;;;;5070665;28;20804;-66
2022/12/19 02:11:41;;;;;;;92.47;38.87;;;;;;;;;;5054411;28;20293;-67
2022/12/19 02:14:07;;;;;;;92.17;37.63;;;;;;;;;;5071999;28;20279;-66
2022/12/19 02:16:43;;;;;;;101.33;40.77;;;;;;;;;;5056270;28;20298;-67
2022/12/19 02:19:18;;;;;;;104.13;41.87;;;;;;;;;;5052087;28;20292;-67
2022/12/19 02:21:52;;;;;;;94.73;39.57;;;;;;;;;;5051019;28;20287;-67
2022/12/19 02:24:33;;;;;;;104.00;40.17;;;;;;;;;;5052174;28;20279;-67
2022/12/19 02:26:59;;;;;;;122.43;43.97;;;;;;;;;;5051786;28;20049;-67
2022/12/19 02:29:44;;;;;;;108.73;41.03;;;;;;;;;;5052493;28;20053;-67
2022/12/19 02:32:25;;;;;;;112.40;42.90;;;;;;;;;;5052073;28;20297;-67
2022/12/19 02:35:00;;;;;;;110.43;43.87;;;;;;;;;;5051599;28;20291;-67
2022/12/19 02:37:28;;;;;;;125.13;46.33;;;;;;;;;;5050937;28;20288;-67
2022/12/19 02:39:57;;;;;;;125.70;47.93;;;;;;;;;;5051554;28;20375;-67
2022/12/19 02:42:35;;;;;;;123.77;46.87;;;;;;;;;;5051846;28;20649;-68
2022/12/19 02:45:02;;;;;;;156.87;53.13;;;;;;;;;;5058235;28;20295;-67
2022/12/19 02:47:29;;;;;;;124.07;47.47;;;;;;;;;;5070369;28;20310;-67
2022/12/19 02:49:56;;;;;;;135.73;50.53;;;;;;;;;;5071545;28;20799;-67
2022/12/19 02:52:22;;;;;;;127.07;47.50;;;;;;;;;;5061935;28;20767;-67
2022/12/19 02:54:49;;;;;;;118.23;46.60;;;;;;;;;;5052935;28;20820;-67
2022/12/19 02:57:18;;;;;;;119.53;48.40;;;;;;;;;;5033613;28;20280;-67
2022/12/19 02:59:58;;;;;;;146.87;52.10;;;;;;;;;;5051400;28;20041;-67
2022/12/19 03:02:34;;;;;;;124.40;47.10;;;;;;;;;;5062934;28;20044;-67
2022/12/19 03:05:18;;;;;;;147.80;53.70;;;;;;;;;;5070439;28;20307;-67
2022/12/19 03:07:44;;;;;;;149.00;54.47;;;;;;;;;;5071523;28;20605;-67
2022/12/19 03:10:29;;;;;;;122.03;52.30;;;;;;;;;;5071408;28;20287;-67
2022/12/19 03:13:03;;;;;;;134.13;50.93;;;;;;;;;;5069313;28;20048;-67
2022/12/19 03:15:31;;;;;;;137.33;50.33;;;;;;;;;;5051089;28;20071;-67
2022/12/19 03:18:01;;;;;;;118.27;47.07;;;;;;;;;;5068975;28;20496;-67
2022/12/19 03:20:39;;;;;;;135.03;50.07;;;;;;;;;;5071214;28;20662;-67
2022/12/19 03:23:05;;;;;;;159.80;54.33;;;;;;;;;;5068755;28;20087;-67
2022/12/19 03:25:32;;;;;;;126.93;49.63;;;;;;;;;;5051011;28;20053;-67
2022/12/19 03:28:00;;;;;;;136.80;49.50;;;;;;;;;;5050980;28;20315;-67
2022/12/19 03:30:26;;;;;;;141.73;51.33;;;;;;;;;;5051043;28;20072;-67
2022/12/19 03:32:52;;;;;;;145.47;54.83;;;;;;;;;;5066590;28;20430;-67
2022/12/19 03:35:21;;;;;;;147.03;55.20;;;;;;;;;;5067596;28;20131;-67
2022/12/19 03:37:48;;;;;;;140.43;50.40;;;;;;;;;;5070628;28;20056;-67
2022/12/19 03:40:20;;;;;;;136.40;52.70;;;;;;;;;;5070636;28;20037;-67
2022/12/19 03:45:47;;;;;;;154.50;56.27;;;;;;;;;;5050603;28;20053;-67
2022/12/19 03:48:29;;;;;;;132.50;53.50;;;;;;;;;;5050169;28;20037;-67
2022/12/19 03:51:18;;;;;;;160.83;56.30;;;;;;;;;;5065955;28;20118;-67
2022/12/19 03:53:50;;;;;;;153.43;59.53;;;;;;;;;;5026329;28;20048;-67
2022/12/19 03:56:22;;;;;;;176.63;57.20;;;;;;;;;;5052608;28;20049;-67
2022/12/19 03:58:51;;;;;;;144.37;56.93;;;;;;;;;;5069451;28;20071;-67
2022/12/19 04:01:18;;;;;;;138.73;55.77;;;;;;;;;;5054427;28;20102;-67
2022/12/19 04:03:44;;;;;;;149.20;54.80;;;;;;;;;;5048415;28;20059;-67
2022/12/19 04:06:11;;;;;;;157.30;58.70;;;;;;;;;;5049058;28;20128;-67
2022/12/19 04:08:37;;;;;;;143.27;56.47;;;;;;;;;;5032495;28;20551;-67
2022/12/19 04:11:06;;;;;;;162.33;58.37;;;;;;;;;;5050040;28;20049;-67
2022/12/19 04:13:35;;;;;;;128.70;51.03;;;;;;;;;;5049686;28;20129;-67
2022/12/19 04:16:14;;;;;;;138.07;54.37;;;;;;;;;;5049446;28;20136;-67
2022/12/19 04:18:41;;;;;;;134.03;51.37;;;;;;;;;;5048987;28;20045;-67
2022/12/19 04:21:24;;;;;;;134.63;51.17;;;;;;;;;;5050149;28;20087;-67
2022/12/19 04:23:53;;;;;;;119.80;51.10;;;;;;;;;;5054674;28;20153;-67
2022/12/19 04:26:20;;;;;;;147.40;51.23;;;;;;;;;;5070216;28;20056;-67
2022/12/19 04:28:49;;;;;;;117.83;50.77;;;;;;;;;;5069454;28;20044;-67
2022/12/19 04:31:16;;;;;;;119.17;52.23;;;;;;;;;;5049941;28;20095;-67
2022/12/19 04:33:42;;;;;;;121.60;49.67;;;;;;;;;;5053817;28;20045;-67
2022/12/19 04:36:09;;;;;;;125.57;50.77;;;;;;;;;;5069807;28;20097;-67
2022/12/19 04:38:35;;;;;;;134.13;49.70;;;;;;;;;;5069818;28;20052;-67
2022/12/19 04:41:01;;;;;;;127.40;51.33;;;;;;;;;;5068693;28;20510;-67
2022/12/19 04:43:27;;;;;;;133.90;50.33;;;;;;;;;;5069391;28;20052;-67
2022/12/19 04:45:53;;;;;;;115.57;48.57;;;;;;;;;;5050139;28;20060;-67
2022/12/19 04:48:21;;;;;;;132.43;47.60;;;;;;;;;;5049563;28;20085;-67
2022/12/19 04:50:47;;;;;;;115.13;50.90;;;;;;;;;;5049911;28;20048;-67
2022/12/19 04:53:13;;;;;;;152.20;53.93;;;;;;;;;;5049413;28;20056;-67
2022/12/19 04:55:40;;;;;;;140.10;50.87;;;;;;;;;;5049635;28;20098;-67
2022/12/19 04:58:06;;;;;;;115.97;46.80;;;;;;;;;;5060423;28;20582;-67
2022/12/19 05:00:33;;;;;;;128.80;47.20;;;;;;;;;;5052851;28;20048;-67
2022/12/19 05:02:59;;;;;;;168.23;55.37;;;;;;;;;;5049475;28;20077;-67
2022/12/19 05:05:25;;;;;;;146.13;50.90;;;;;;;;;;5049433;28;20090;-67
2022/12/19 05:07:51;;;;;;;129.50;50.17;;;;;;;;;;5049117;28;20207;-67
2022/12/19 05:10:17;;;;;;;111.20;44.50;;;;;;;;;;5048442;28;20045;-67
2022/12/19 05:12:43;;;;;;;113.73;48.07;;;;;;;;;;5059894;28;20093;-67
2022/12/19 05:15:10;;;;;;;126.73;46.87;;;;;;;;;;5052971;28;20435;-66
2022/12/19 05:17:36;;;;;;;116.47;47.87;;;;;;;;;;5049425;28;20044;-67
2022/12/19 05:20:03;;;;;;;148.83;50.10;;;;;;;;;;5048933;28;20044;-67
2022/12/19 05:22:29;;;;;;;117.90;46.17;;;;;;;;;;5048959;28;20041;-67
2022/12/19 05:24:55;;;;;;;106.63;42.93;;;;;;;;;;5048036;28;20067;-67
2022/12/19 05:27:21;;;;;;;116.00;44.40;;;;;;;;;;5049392;28;20430;-67
2022/12/19 05:29:47;;;;;;;117.70;45.03;;;;;;;;;;5050358;28;20049;-66
2022/12/19 05:32:13;;;;;;;98.33;41.20;;;;;;;;;;5068138;28;20541;-66
2022/12/19 05:34:39;;;;;;;94.63;39.53;;;;;;;;;;5067889;28;20532;-67
2022/12/19 05:37:05;;;;;;;103.10;38.83;;;;;;;;;;5069119;28;20056;-66
2022/12/19 05:39:31;;;;;;;100.93;40.67;;;;;;;;;;5070942;28;20040;-67
2022/12/19 05:41:57;;;;;;;110.97;40.17;;;;;;;;;;5063856;28;20044;-67
2022/12/19 05:44:23;;;;;;;98.20;40.10;;;;;;;;;;5052573;28;20060;-67
2022/12/19 05:46:50;;;;;;;74.20;37.07;;;;;;;;;;5052278;28;20085;-66
2022/12/19 05:49:16;;;;;;;86.63;36.87;;;;;;;;;;5051491;28;20102;-67
2022/12/19 05:51:42;;;;;;;96.03;37.90;;;;;;;;;;5067486;28;20056;-67
2022/12/19 05:54:08;;;;;;;89.43;36.23;;;;;;;;;;5070933;28;20049;-67
2022/12/19 05:56:34;;;;;;;88.80;38.20;;;;;;;;;;5071932;28;20048;-67
2022/12/19 05:59:00;;;;;;;84.63;35.47;;;;;;;;;;5061685;28;20038;-66
2022/12/19 06:01:27;;;;;;;76.97;35.13;;;;;;;;;;5048340;28;20358;-67
2022/12/19 06:03:53;;;;;;;104.50;40.07;;;;;;;;;;5070703;28;20580;-67
2022/12/19 06:06:22;;;;;;;81.90;34.43;;;;;;;;;;5069978;28;20101;-67
2022/12/19 06:08:52;;;;;;;95.07;37.83;;;;;;;;;;5068681;28;20052;-67
2022/12/19 06:11:18;;;;;;;78.80;35.93;;;;;;;;;;5054411;28;20095;-66
2022/12/19 06:13:44;;;;;;;77.57;35.60;;;;;;;;;;5051323;28;20511;-66
2022/12/19 06:16:11;;;;;;;97.00;37.20;;;;;;;;;;5048348;28;20055;-66
2022/12/19 06:18:38;;;;;;;103.37;37.53;;;;;;;;;;5050825;28;20419;-67
2022/12/19 06:21:05;;;;;;;91.70;36.93;;;;;;;;;;5066575;28;20055;-67
2022/12/19 06:23:32;;;;;;;104.10;38.57;;;;;;;;;;5071479;28;20044;-67
2022/12/19 06:25:59;;;;;;;81.33;34.47;;;;;;;;;;5071733;28;20522;-67
2022/12/19 06:28:26;;;;;;;87.90;34.13;;;;;;;;;;5056320;28;20114;-67
2022/12/19 06:30:52;;;;;;;76.93;34.33;;;;;;;;;;5063081;28;20094;-67
2022/12/19 06:33:18;;;;;;;97.37;37.50;;;;;;;;;;5070884;28;20048;-67
2022/12/19 06:35:44;;;;;;;91.03;34.50;;;;;;;;;;5071964;28;20637;-67
2022/12/19 06:38:10;;;;;;;89.93;35.10;;;;;;;;;;5070230;28;20044;-67
2022/12/19 06:43:25;;;;;;;72.87;33.07;;;;;;;;;;5051559;28;20052;-67
2022/12/19 06:45:51;;;;;;;75.03;34.27;;;;;;;;;;5050852;28;20057;-67
2022/12/19 06:48:17;;;;;;;72.20;33.90;;;;;;;;;;5049077;28;20064;-67
2022/12/19 06:50:43;;;;;;;80.60;33.97;;;;;;;;;;5050246;28;20554;-67
2022/12/19 06:53:09;;;;;;;100.00;38.33;;;;;;;;;;5049521;28;20053;-67
2022/12/19 06:55:36;;;;;;;82.63;34.33;;;;;;;;;;5051039;28;20048;-67
2022/12/19 06:58:03;;;;;;;94.60;36.53;;;;;;;;;;5051248;28;20585;-67
2022/12/19 07:00:29;;;;;;;86.83;33.97;;;;;;;;;;5050262;28;20045;-67
2022/12/19 07:02:57;;;;;;;97.83;35.43;;;;;;;;;;5050266;28;20050;-67
2022/12/19 07:05:25;;;;;;;79.23;32.13;;;;;;;;;;5049744;28;20040;-67
2022/12/19 07:07:51;;;;;;;87.80;34.53;;;;;;;;;;5049668;28;20049;-67
2022/12/19 07:10:18;;;;;;;73.00;33.50;;;;;;;;;;5062684;28;20490;-67
2022/12/19 07:12:44;;;;;;;79.80;33.40;;;;;;;;;;5071006;28;20059;-67
2022/12/19 07:15:11;;;;;;;83.10;35.40;;;;;;;;;;5059455;28;20045;-67
2022/12/19 07:17:37;;;;;;;62.20;29.90;;;;;;;;;;5053796;28;20059;-67
2022/12/19 07:20:04;;;;;;;84.00;33.97;;;;;;;;;;5051720;28;20090;-67
2022/12/19 07:22:32;;;;;;;88.30;34.97;;;;;;;;;;5049261;28;20045;-67
2022/12/19 07:24:59;;;;;;;92.23;35.17;;;;;;;;;;5050645;28;20045;-67
2022/12/19 07:27:27;;;;;;;74.57;32.17;;;;;;;;;;5048755;28;20542;-68
2022/12/19 07:29:53;;;;;;;82.20;31.70;;;;;;;;;;5051430;28;20045;-67
2022/12/19 07:32:19;;;;;;;73.13;31.50;;;;;;;;;;5049888;28;20404;-68
2022/12/19 07:34:45;;;;;;;90.10;34.03;;;;;;;;;;5048634;28;20060;-68
2022/12/19 07:37:11;;;;;;;95.80;34.77;;;;;;;;;;5064021;28;20048;-68
2022/12/19 07:39:37;;;;;;;69.23;29.20;;;;;;;;;;5066914;28;20101;-68
2022/12/19 07:42:03;;;;;;;68.07;28.27;;;;;;;;;;5070012;28;20495;-68
2022/12/19 07:44:30;;;;;;;84.30;34.47;;;;;;;;;;5068036;28;20060;-67
2022/12/19 07:46:56;;;;;;;62.57;28.40;;;;;;;;;;5054605;28;20126;-67
2022/12/19 07:49:22;;;;;;;66.73;30.80;;;;;;;;;;5048882;28;20053;-67
2022/12/19 07:51:48;;;;;;;80.50;31.80;;;;;;;;;;5049864;28;20074;-67
2022/12/19 07:54:14;;;;;;;78.87;31.87;;;;;;;;;;5054057;28;20036;-67
2022/12/19 07:56:40;;;;;;;64.00;30.47;;;;;;;;;;5056739;28;20478;-67
2022/12/19 07:59:06;;;;;;;73.50;31.23;;;;;;;;;;5070145;28;20405;-67
2022/12/19 08:01:32;;;;;;;71.90;29.67;;;;;;;;;;5055033;28;20061;-67
2022/12/19 08:03:58;;;;;;;60.43;29.07;;;;;;;;;;5049138;28;20109;-67
2022/12/19 08:06:25;;;;;;;55.60;28.30;;;;;;;;;;5032342;28;20049;-67
2022/12/19 08:08:51;;;;;;;58.77;29.77;;;;;;;;;;5046070;28;20180;-67
2022/12/19 08:11:21;;;;;;;66.90;30.47;;;;;;;;;;5069823;28;20052;-66
2022/12/19 08:13:47;;;;;;;61.07;28.77;;;;;;;;;;5052326;28;20208;-65
2022/12/19 08:16:13;;;;;;;57.00;28.63;;;;;;;;;;5051156;28;20064;-66
2022/12/19 08:18:39;;;;;;;60.40;28.03;;;;;;;;;;5055352;28;20052;-66
2022/12/19 08:21:07;;;;;;;62.47;27.37;;;;;;;;;;5056225;28;20530;-65
2022/12/19 08:23:33;;;;;;;53.37;27.70;;;;;;;;;;5067356;28;20044;-66
2022/12/19 08:26:04;;;;;;;67.20;28.13;;;;;;;;;;5067334;28;20048;-66
2022/12/19 08:28:31;;;;;;;66.83;28.60;;;;;;;;;;5069200;28;20057;-66
2022/12/19 08:30:57;;;;;;;56.33;27.83;;;;;;;;;;5054754;28;20055;-66
2022/12/19 08:33:24;;;;;;;73.73;31.40;;;;;;;;;;5062906;28;20044;-66
2022/12/19 08:35:50;;;;;;;64.17;28.30;;;;;;;;;;5035884;28;20112;-66
2022/12/19 08:38:16;;;;;;;53.50;27.37;;;;;;;;;;5047730;28;20052;-65
2022/12/19 08:40:42;;;;;;;55.40;27.03;;;;;;;;;;5048937;28;20132;-66
2022/12/19 08:43:08;;;;;;;65.73;30.47;;;;;;;;;;5049026;28;20090;-66
2022/12/19 08:45:34;;;;;;;59.03;28.53;;;;;;;;;;5030543;28;20049;-66
2022/12/19 08:48:00;;;;;;;72.90;30.13;;;;;;;;;;5047651;28;20053;-66
2022/12/19 08:50:26;;;;;;;64.73;28.70;;;;;;;;;;5047558;28;20044;-66
2022/12/19 08:52:52;;;;;;;67.03;30.10;;;;;;;;;;5048912;28;20140;-66
2022/12/19 08:55:18;;;;;;;63.10;29.27;;;;;;;;;;5048212;28;20322;-66
2022/12/19 08:57:44;;;;;;;59.27;29.90;;;;;;;;;;5051691;28;20056;-67
2022/12/19 09:00:11;;;;;;;63.50;28.23;;;;;;;;;;5056284;28;20049;-67
2022/12/19 09:02:37;;;;;;;59.87;28.07;;;;;;;;;;5056539;28;20460;-67
2022/12/19 09:05:04;;;;;;;68.27;31.27;;;;;;;;;;5066220;28;20051;-67
2022/12/19 09:07:30;;;;;;;50.53;28.60;;;;;;;;;;5067875;28;20045;-67
2022/12/19 09:09:56;;;;;;;62.50;28.93;;;;;;;;;;5063864;28;20067;-67
2022/12/19 09:12:22;;;;;;;65.23;31.27;;;;;;;;;;5057423;28;20055;-67
2022/12/19 09:14:48;;;;;;;56.27;30.77;;;;;;;;;;5065846;28;20048;-67
2022/12/19 09:17:14;;;;;;;55.60;28.57;;;;;;;;;;5057997;28;20470;-67
2022/12/19 09:19:41;;;;;;;54.20;31.37;;;;;;;;;;5052653;28;20128;-67
2022/12/19 09:22:07;;;;;;;48.37;28.27;;;;;;;;;;5051409;28;20400;-66
2022/12/19 09:24:33;;;;;;;55.63;29.77;;;;;;;;;;5053030;28;20040;-67
2022/12/19 09:26:59;;;;;;;61.40;31.03;;;;;;;;;;5063306;28;20310;-67
2022/12/19 09:29:27;;;;;;;61.60;31.23;;;;;;;;;;5072645;28;20055;-67
2022/12/19 09:31:53;;;;;;;59.37;29.70;;;;;;;;;;5072135;28;20044;-67
2022/12/19 09:34:19;;;;;;;51.13;28.03;;;;;;;;;;5072183;28;20260;-66
2022/12/19 09:36:45;;;;;;;60.43;29.87;;;;;;;;;;5071988;28;20048;-67
2022/12/19 09:39:11;;;;;;;48.37;26.87;;;;;;;;;;5069354;28;20041;-67
2022/12/19 09:41:37;;;;;;;54.07;28.70;;;;;;;;;;5072175;28;20055;-68
2022/12/19 09:44:22;;;;;;;60.90;29.40;;;;;;;;;;5070603;28;20114;-67
2022/12/19 09:46:51;;;;;;;52.77;27.57;;;;;;;;;;5071286;28;20110;-67
2022/12/19 09:49:22;;;;;;;52.87;26.77;;;;;;;;;;5068578;28;20037;-67
2022/12/19 09:52:00;;;;;;;59.87;28.10;;;;;;;;;;5072096;28;20543;-68
2022/12/19 09:54:42;;;;;;;48.40;26.10;;;;;;;;;;5071285;28;20044;-67
2022/12/19 09:57:28;;;;;;;66.03;28.23;;;;;;;;;;5070751;28;20044;-67
2022/12/19 09:59:59;;;;;;;50.57;25.10;;;;;;;;;;5071339;28;20048;-67
2022/12/19 10:02:32;;;;;;;43.77;24.63;;;;;;;;;;5071116;28;20053;-67
2022/12/19 10:05:17;;;;;;;44.27;24.03;;;;;;;;;;5052051;28;20468;-67
2022/12/19 10:07:44;;;;;;;44.03;23.93;;;;;;;;;;5051673;28;20056;-67
2022/12/19 10:10:21;;;;;;;39.23;22.67;;;;;;;;;;5051402;28;20060;-67
2022/12/19 10:12:47;;;;;;;51.50;25.77;;;;;;;;;;5050243;28;20049;-67
2022/12/19 10:15:16;;;;;;;47.67;25.00;;;;;;;;;;5051299;28;20049;-68
2022/12/19 10:17:45;;;;;;;38.80;22.00;;;;;;;;;;5050196;28;20120;-68
2022/12/19 10:20:11;;;;;;;38.07;21.97;;;;;;;;;;5051298;28;20063;-68
2022/12/19 10:22:54;;;;;;;45.87;23.07;;;;;;;;;;5051419;28;20045;-67
2022/12/19 10:25:33;;;;;;;38.30;21.80;;;;;;;;;;5049276;28;20103;-67
2022/12/19 10:28:11;;;;;;;40.10;23.13;;;;;;;;;;5050850;28;20053;-68
2022/12/19 10:31:13;;;;;;;41.73;22.30;;;;;;;;;;5069496;28;20052;-67
2022/12/19 10:33:44;;;;;;;54.23;25.87;;;;;;;;;;5028518;28;20100;-68
2022/12/19 10:36:11;;;;;;;39.70;21.10;;;;;;;;;;5064161;28;20147;-68
2022/12/19 10:38:47;;;;;;;36.60;20.70;;;;;;;;;;5071344;28;20040;-67
2022/12/19 10:41:18;;;;;;;40.10;23.00;;;;;;;;;;5056397;28;20045;-67
2022/12/19 10:43:48;;;;;;;34.57;20.40;;;;;;;;;;5049353;28;20052;-68
2022/12/19 10:46:20;;;;;;;27.27;18.27;;;;;;;;;;5050670;28;20049;-68
2022/12/19 10:48:47;;;;;;;35.17;21.07;;;;;;;;;;5050946;28;20049;-68
2022/12/19 10:51:18;;;;;;;35.77;19.37;;;;;;;;;;5050906;28;20098;-67
2022/12/19 10:53:52;;;;;;;28.90;18.23;;;;;;;;;;5049396;28;20509;-67
2022/12/19 10:56:29;;;;;;;30.27;18.05;;;;;;;;;;5050525;28;20037;-67
2022/12/19 10:59:00;;;;;;;32.77;19.17;;;;;;;;;;5050742;28;20064;-67
2022/12/19 11:01:32;;;;;;;36.40;19.63;;;;;;;;;;5050369;28;20056;-67
2022/12/19 11:04:18;;;;;;;34.40;18.57;;;;;;;;;;5050698;28;20060;-68
2022/12/19 11:06:53;;;;;;;33.93;19.07;;;;;;;;;;5050133;28;20056;-68
2022/12/19 11:09:22;;;;;;;28.17;17.60;;;;;;;;;;5050122;28;20052;-67
2022/12/19 11:11:55;;;;;;;28.33;17.47;;;;;;;;;;5049543;28;20442;-67
2022/12/19 11:14:25;;;;;;;33.38;19.48;;;;;;;;;;5050288;28;20040;-67
2022/12/19 11:16:51;;;;;;;29.13;17.87;;;;;;;;;;5049023;28;20052;-67
2022/12/19 11:19:22;;;;;;;30.40;17.87;;;;;;;;;;5049673;28;20531;-67
2022/12/19 11:21:48;;;;;;;33.20;20.13;;;;;;;;;;5050268;28;20123;-68
2022/12/19 11:24:23;;;;;;;37.17;19.77;;;;;;;;;;5050500;28;20045;-67
2022/12/19 11:26:50;;;;;;;27.13;17.57;;;;;;;;;;5060470;28;20048;-67
2022/12/19 11:29:39;;;;;;;34.10;19.63;;;;;;;;;;5069487;28;20045;-67
2022/12/19 11:32:19;;;;;;;31.10;18.10;;;;;;;;;;5064163;28;20135;-68
2022/12/19 11:34:49;;;;;;;38.03;19.73;;;;;;;;;;5069951;28;20074;-67
2022/12/19 11:37:27;;;;;;;28.57;18.50;;;;;;;;;;5069863;28;20036;-68
2022/12/19 11:40:05;;;;;;;27.87;17.90;;;;;;;;;;5059822;28;20437;-67
2022/12/19 11:42:31;;;;;;;33.17;18.60;;;;;;;;;;5061403;28;20044;-67
2022/12/19 11:45:07;;;;;;;25.70;16.90;;;;;;;;;;5071306;28;20056;-67
2022/12/19 11:47:41;;;;;;;33.03;18.23;;;;;;;;;;5050749;28;20060;-67
2022/12/19 11:50:14;;;;;;;23.23;16.50;;;;;;;;;;5065822;28;20040;-67
2022/12/19 11:52:45;;;;;;;29.83;17.90;;;;;;;;;;5069428;28;20056;-67
2022/12/19 11:55:23;;;;;;;29.20;17.30;;;;;;;;;;5052990;28;20048;-67
2022/12/19 11:57:49;;;;;;;30.07;17.83;;;;;;;;;;5051402;28;20063;-67
2022/12/19 12:00:20;;;;;;;31.60;18.17;;;;;;;;;;5069184;28;20410;-67
2022/12/19 12:02:45;;;;;;;22.47;16.63;;;;;;;;;;5069307;28;20093;-68
2022/12/19 12:05:35;;;;;;;25.30;15.67;;;;;;;;;;5069308;28;20512;-67
2022/12/19 12:08:20;;;;;;;25.73;16.20;;;;;;;;;;5049981;28;20095;-67
2022/12/19 12:10:53;;;;;;;23.60;15.37;;;;;;;;;;5066792;28;20079;-66
2022/12/19 12:13:19;;;;;;;25.92;16.52;;;;;;;;;;5053556;28;20127;-67
2022/12/19 12:16:05;;;;;;;29.13;16.30;;;;;;;;;;5068877;28;20155;-67
2022/12/19 12:18:50;;;;;;;24.20;15.97;;;;;;;;;;5059780;28;20094;-67
2022/12/19 12:21:23;;;;;;;26.63;16.33;;;;;;;;;;5067434;28;20056;-67
2022/12/19 12:23:52;;;;;;;20.98;14.65;;;;;;;;;;5063841;28;20041;-67
2022/12/19 12:26:21;;;;;;;22.07;14.97;;;;;;;;;;5068210;28;20049;-67
2022/12/19 12:29:06;;;;;;;27.03;15.83;;;;;;;;;;5067428;28;20044;-68
2022/12/19 12:31:40;;;;;;;21.20;15.27;;;;;;;;;;5049129;28;20106;-67
2022/12/19 12:34:16;;;;;;;24.77;16.13;;;;;;;;;;5065059;28;20044;-67
2022/12/19 12:36:47;;;;;;;23.07;15.17;;;;;;;;;;5057811;28;20032;-67
2022/12/19 12:39:21;;;;;;;36.03;19.33;;;;;;;;;;5052768;28;20189;-67
2022/12/19 12:42:04;;;;;;;26.17;16.50;;;;;;;;;;5068063;28;20052;-67
2022/12/19 12:44:38;;;;;;;27.52;16.83;;;;;;;;;;5049928;28;20064;-68
2022/12/19 12:47:16;;;;;;;26.30;15.83;;;;;;;;;;5066472;28;20430;-68
2022/12/19 12:49:52;;;;;;;27.20;16.93;;;;;;;;;;5061451;28;20139;-67
2022/12/19 12:52:21;;;;;;;37.20;21.27;;;;;;;;;;5058857;28;20059;-68
2022/12/19 12:54:48;;;;;;;29.37;16.13;;;;;;;;;;5067353;28;20090;-68
2022/12/19 12:57:18;;;;;;;31.37;18.87;;;;;;;;;;5068558;28;20139;-68
2022/12/19 12:59:45;;;;;;;28.37;17.10;;;;;;;;;;5065922;28;20048;-68
2022/12/19 13:02:21;;;;;;;30.30;16.87;;;;;;;;;;5067501;28;20047;-67
2022/12/19 13:04:58;;;;;;;30.43;18.23;;;;;;;;;;5067577;28;20072;-68
2022/12/19 13:07:54;;;;;;;29.33;17.40;;;;;;;;;;5065626;28;20048;-68
2022/12/19 13:10:27;;;;;;;27.37;17.17;;;;;;;;;;5053535;28;20051;-67
2022/12/19 13:12:59;;;;;;;27.42;16.95;;;;;;;;;;5068702;28;20097;-67
2022/12/19 13:15:28;;;;;;;23.57;15.67;;;;;;;;;;5063627;28;20438;-67
2022/12/19 13:17:54;;;;;;;32.73;16.03;;;;;;;;;;5052054;28;20049;-67
2022/12/19 13:20:23;;;;;;;20.70;15.20;;;;;;;;;;5057697;28;20051;-67
2022/12/19 13:23:04;;;;;;;24.33;15.33;;;;;;;;;;5060086;28;20052;-67
2022/12/19 13:25:30;;;;;;;25.53;14.67;;;;;;;;;;5054383;28;20168;-67
2022/12/19 13:28:02;;;;;;;22.63;13.77;;;;;;;;;;5059947;28;20094;-67
2022/12/19 13:30:29;;;;;;;24.80;14.77;;;;;;;;;;5056382;28;20040;-67
2022/12/19 13:32:55;;;;;;;18.70;12.47;;;;;;;;;;5065228;28;20052;-68
2022/12/19 13:35:21;;;;;;;24.27;14.13;;;;;;;;;;5068322;28;20056;-68
2022/12/19 13:38:16;;;;;;;20.57;13.63;;;;;;;;;;5065346;28;20044;-67
2022/12/19 13:40:42;;;;;;;25.20;13.80;;;;;;;;;;5050799;28;20414;-67
2022/12/19 13:46:02;;;;;;;18.37;11.23;;;;;;;;;;5067475;28;20045;-67
2022/12/19 13:48:34;;;;;;;19.00;10.43;;;;;;;;;;5059057;28;20045;-67
2022/12/19 13:51:05;;;;;;;14.03;10.00;;;;;;;;;;5055769;28;20107;-67
2022/12/19 13:53:31;;;;;;;13.67;10.07;;;;;;;;;;5065029;28;20409;-68
2022/12/19 13:56:01;;;;;;;14.97;10.47;;;;;;;;;;5065563;28;20055;-67
2022/12/19 13:58:29;;;;;;;17.10;10.37;;;;;;;;;;5066020;28;20454;-67
2022/12/19 14:00:57;;;;;;;15.73;8.63;;;;;;;;;;5069283;28;20044;-67
2022/12/19 14:03:34;;;;;;;12.70;9.77;;;;;;;;;;5051991;28;20503;-67
2022/12/19 14:06:05;;;;;;;17.80;10.07;;;;;;;;;;5052591;28;20098;-67
2022/12/19 14:08:31;;;;;;;14.27;9.60;;;;;;;;;;5051684;28;20060;-67
2022/12/19 14:10:57;;;;;;;12.73;9.53;;;;;;;;;;5051129;28;20049;-67
2022/12/19 14:16:14;;;;;;;15.00;9.23;;;;;;;;;;5054217;28;20048;-67
2022/12/19 14:18:40;;;;;;;12.97;8.73;;;;;;;;;;5059381;28;20052;-67
2022/12/19 14:21:21;;;;;;;12.47;8.73;;;;;;;;;;5060361;28;20052;-67
2022/12/19 14:23:47;;;;;;;12.20;8.20;;;;;;;;;;5059315;28;20124;-67
2022/12/19 14:26:28;;;;;;;13.43;8.17;;;;;;;;;;5070534;28;20045;-67
2022/12/19 14:28:59;;;;;;;14.10;7.63;;;;;;;;;;5071228;28;20391;-67
2022/12/19 14:31:25;;;;;;;14.37;8.70;;;;;;;;;;5070023;28;20041;-67
2022/12/19 14:33:52;;;;;;;13.07;8.77;;;;;;;;;;5068159;28;20047;-67
2022/12/19 14:36:40;;;;;;;16.10;9.30;;;;;;;;;;5066931;28;20124;-67
2022/12/19 14:39:06;;;;;;;15.97;9.03;;;;;;;;;;5068240;28;20116;-67
2022/12/19 14:44:23;;;;;;;11.60;8.30;;;;;;;;;;5057863;28;20742;-67